createdAt,value
2022-11-21T00:01:13.642Z,100033.28
2022-11-21T00:02:16.729Z,100022.13
2022-11-21T00:03:19.042Z,100028.19
2022-11-21T00:04:22.139Z,100026.56
2022-11-21T00:05:24.178Z,100026.56
2022-11-21T00:06:27.345Z,100027.50
2022-11-21T00:07:29.475Z,100023.09
2022-11-21T00:08:32.592Z,100025.72
2022-11-21T00:09:36.773Z,100026.56
2022-11-21T00:10:40.664Z,100013.56
2022-11-21T00:11:42.810Z,100023.09
2022-11-21T00:12:45.831Z,100023.09
2022-11-21T00:13:47.881Z,100023.78
2022-11-21T00:14:50.923Z,100019.34
2022-11-21T00:15:54.336Z,100017.56
2022-11-21T00:16:57.675Z,100020.19
2022-11-21T00:18:02.905Z,100019.19
2022-11-21T00:19:05.956Z,100014.94
2022-11-21T00:20:08.920Z,100014.94
2022-11-21T00:21:13.920Z,100020.47
2022-11-21T00:22:15.997Z,100017.56
2022-11-21T00:23:19.078Z,100026.41
2022-11-21T00:24:21.122Z,100053.56
2022-11-21T00:25:24.322Z,100031.78
2022-11-21T00:26:26.366Z,100024.88
2022-11-21T00:27:29.604Z,100027.66
2022-11-21T00:28:31.610Z,100027.66
2022-11-21T00:29:34.665Z,100026.81
2022-11-21T00:30:36.844Z,100021.72
2022-11-21T00:31:41.309Z,100021.88
2022-11-21T00:32:43.308Z,100017.47
2022-11-21T00:33:46.325Z,100020.22
2022-11-21T00:34:48.341Z,100023.00
2022-11-21T00:35:51.386Z,100015.94
2022-11-21T00:36:53.491Z,100017.75
2022-11-21T00:37:56.503Z,100019.56
2022-11-21T00:38:58.533Z,100019.69
2022-11-21T00:40:02.097Z,100018.84
2022-11-21T00:41:04.156Z,100015.41
2022-11-21T00:42:07.330Z,100017.22
2022-11-21T00:43:09.373Z,100014.75
2022-11-21T00:44:12.439Z,100013.91
2022-11-21T00:45:18.320Z,100009.50
2022-11-21T00:46:24.292Z,100014.91
2022-11-21T00:47:27.865Z,100003.59
2022-11-21T00:48:31.478Z,100009.78
2022-11-21T00:49:33.612Z,100002.06
2022-11-21T00:50:36.914Z,100001.25
2022-11-21T00:51:39.019Z,100003.03
2022-11-21T00:52:42.004Z,100002.06
2022-11-21T00:53:44.058Z,100000.41
2022-11-21T00:54:47.239Z,99999.59
2022-11-21T00:55:49.444Z,99993.53
2022-11-21T00:56:52.797Z,99999.59
2022-11-21T00:57:54.946Z,99992.72
2022-11-21T00:58:58.043Z,99990.09
2022-11-21T01:00:00.213Z,99994.50
2022-11-21T01:01:06.513Z,99989.41
2022-11-21T01:02:08.734Z,99993.00
2022-11-21T01:03:13.229Z,99996.44
2022-11-21T01:04:15.495Z,99995.63
2022-11-21T01:05:18.965Z,99999.19
2022-11-21T01:06:21.155Z,100000.03
2022-11-21T01:07:24.363Z,99991.47
2022-11-21T01:08:26.511Z,99995.09
2022-11-21T01:09:29.714Z,99991.63
2022-11-21T01:10:31.776Z,99992.63
2022-11-21T01:11:34.961Z,99996.19
2022-11-21T01:12:37.108Z,99997.31
2022-11-21T01:13:41.139Z,99998.25
2022-11-21T01:14:43.294Z,99995.00
2022-11-21T01:15:46.416Z,100002.97
2022-11-21T01:16:48.606Z,99996.22
2022-11-21T01:17:51.823Z,100001.63
2022-11-21T01:18:56.254Z,100001.75
2022-11-21T01:19:59.459Z,100001.91
2022-11-21T01:21:02.241Z,99996.81
2022-11-21T01:22:05.422Z,99998.59
2022-11-21T01:23:07.734Z,100000.53
2022-11-21T01:24:12.644Z,99993.81
2022-11-21T01:25:14.939Z,100005.91
2022-11-21T01:26:20.678Z,100000.81
2022-11-21T01:27:22.814Z,99999.03
2022-11-21T01:28:26.017Z,100001.66
2022-11-21T01:29:29.327Z,100006.06
2022-11-21T01:30:31.558Z,100000.97
2022-11-21T01:31:34.832Z,99999.31
2022-11-21T01:32:36.979Z,100003.72
2022-11-21T01:33:40.537Z,100003.72
2022-11-21T01:34:44.112Z,100002.91
2022-11-21T01:35:47.291Z,100008.28
2022-11-21T01:36:49.560Z,100000.44
2022-11-21T01:37:52.765Z,100003.88
2022-11-21T01:38:57.080Z,100004.69
2022-11-21T01:40:00.238Z,100000.28
2022-11-21T01:41:02.485Z,100005.38
2022-11-21T01:42:06.071Z,100008.81
2022-11-21T01:43:12.542Z,99976.75
2022-11-21T01:44:20.630Z,100001.66
2022-11-21T01:46:03.771Z,100005.91
2022-11-21T01:47:06.262Z,100007.56
2022-11-21T01:48:09.792Z,100001.38
2022-11-21T01:49:17.694Z,100003.00
2022-11-21T01:50:21.798Z,100006.31
2022-11-21T01:51:30.526Z,100001.91
2022-11-21T01:52:34.039Z,100005.19
2022-11-21T01:53:38.075Z,100001.63
2022-11-21T01:54:45.885Z,100002.44
2022-11-21T01:55:48.588Z,100005.72
2022-11-21T01:56:56.605Z,100009.19
2022-11-21T01:57:58.923Z,100002.16
2022-11-21T01:59:05.039Z,100000.34
2022-11-21T02:00:11.766Z,100000.34
2022-11-21T02:01:15.868Z,99992.47
2022-11-21T02:02:23.551Z,100004.63
2022-11-21T02:03:30.677Z,100011.50
2022-11-21T02:04:35.326Z,100009.88
2022-11-21T02:05:42.456Z,100000.22
2022-11-21T02:06:44.949Z,100001.31
2022-11-21T02:07:50.855Z,100012.50
2022-11-21T02:08:53.162Z,100011.50
2022-11-21T02:10:00.446Z,100004.63
2022-11-21T02:11:15.301Z,100014.13
2022-11-21T02:12:24.727Z,100014.97
2022-11-21T02:13:28.251Z,100016.59
2022-11-21T02:14:32.100Z,100007.09
2022-11-21T02:15:34.326Z,100010.41
2022-11-21T02:16:37.775Z,100008.75
2022-11-21T02:17:39.901Z,100014.81
2022-11-21T02:18:43.142Z,100009.56
2022-11-21T02:19:52.383Z,100008.59
2022-11-21T02:21:03.729Z,100004.34
2022-11-21T02:22:12.171Z,100001.72
2022-11-21T02:23:19.972Z,100004.34
2022-11-21T02:24:28.941Z,100001.03
2022-11-21T02:25:36.959Z,100003.78
2022-11-21T02:26:39.136Z,100003.78
2022-11-21T02:27:42.696Z,100010.97
2022-11-21T02:28:44.984Z,99998.03
2022-11-21T02:29:48.537Z,100006.84
2022-11-21T02:30:50.857Z,100011.13
2022-11-21T02:31:54.095Z,99995.53
2022-11-21T02:32:56.355Z,100004.25
2022-11-21T02:33:59.522Z,100004.38
2022-11-21T02:35:01.745Z,99999.94
2022-11-21T02:36:05.453Z,99999.16
2022-11-21T02:37:09.614Z,100006.16
2022-11-21T02:38:19.641Z,99995.97
2022-11-21T02:39:27.365Z,100000.09
2022-11-21T02:40:34.700Z,100001.06
2022-11-21T02:41:42.900Z,100001.91
2022-11-21T02:42:52.925Z,100000.25
2022-11-21T02:44:00.914Z,99999.28
2022-11-21T02:45:14.032Z,99995.00
2022-11-21T02:46:17.336Z,99995.00
2022-11-21T02:47:21.243Z,99993.38
2022-11-21T02:48:24.428Z,99993.38
2022-11-21T02:49:35.938Z,99996.13
2022-11-21T02:50:41.371Z,99984.81
2022-11-21T02:51:43.535Z,99991.84
2022-11-21T02:52:47.089Z,99981.50
2022-11-21T02:53:49.260Z,99992.00
2022-11-21T02:54:52.554Z,99993.81
2022-11-21T02:55:56.137Z,99979.03
2022-11-21T02:56:59.705Z,99988.56
2022-11-21T02:58:05.272Z,99989.38
2022-11-21T02:59:08.883Z,99990.34
2022-11-21T03:00:12.178Z,99989.38
2022-11-21T03:01:15.401Z,99989.38
2022-11-21T03:02:17.610Z,99991.03
2022-11-21T03:03:20.851Z,99994.47
2022-11-21T03:04:23.097Z,99980.56
2022-11-21T03:05:26.279Z,99989.22
2022-11-21T03:06:28.431Z,99979.56
2022-11-21T03:07:31.853Z,99979.56
2022-11-21T03:08:34.101Z,99978.75
2022-11-21T03:09:37.244Z,99988.41
2022-11-21T03:10:39.416Z,99981.50
2022-11-21T03:11:44.043Z,99983.19
2022-11-21T03:12:46.351Z,99976.56
2022-11-21T03:13:49.484Z,99969.41
2022-11-21T03:14:52.655Z,99974.78
2022-11-21T03:15:55.544Z,99974.78
2022-11-21T03:16:58.688Z,99974.94
2022-11-21T03:18:02.848Z,99972.44
2022-11-21T03:19:06.091Z,99967.34
2022-11-21T03:20:09.235Z,99974.38
2022-11-21T03:21:12.367Z,99965.69
2022-11-21T03:22:16.305Z,99966.69
2022-11-21T03:23:18.530Z,99965.00
2022-11-21T03:24:21.842Z,99965.84
2022-11-21T03:25:24.139Z,99962.38
2022-11-21T03:26:27.319Z,99966.69
2022-11-21T03:27:30.844Z,99971.22
2022-11-21T03:28:34.000Z,99974.69
2022-11-21T03:29:36.119Z,99968.59
2022-11-21T03:30:39.339Z,99967.78
2022-11-21T03:31:41.660Z,99968.22
2022-11-21T03:32:44.887Z,99965.31
2022-11-21T03:33:47.043Z,99965.31
2022-11-21T03:34:50.225Z,99968.91
2022-11-21T03:35:52.381Z,99966.44
2022-11-21T03:36:55.755Z,99963.25
2022-11-21T03:37:58.157Z,99963.13
2022-11-21T03:39:01.354Z,99965.88
2022-11-21T03:40:04.112Z,99970.44
2022-11-21T03:41:27.367Z,99966.28
2022-11-21T03:42:30.943Z,99974.97
2022-11-21T03:43:34.739Z,99973.34
2022-11-21T03:44:36.938Z,99963.81
2022-11-21T03:45:40.077Z,99970.03
2022-11-21T03:46:43.900Z,99973.34
2022-11-21T03:47:47.158Z,99973.47
2022-11-21T03:48:49.458Z,99971.66
2022-11-21T03:49:52.630Z,99973.47
2022-11-21T03:50:54.795Z,99970.88
2022-11-21T03:51:57.937Z,99975.13
2022-11-21T03:53:00.107Z,99973.34
2022-11-21T03:54:03.737Z,99973.34
2022-11-21T03:55:06.537Z,99972.34
2022-11-21T03:56:09.664Z,99975.97
2022-11-21T03:57:11.841Z,99971.53
2022-11-21T03:58:16.417Z,99967.41
2022-11-21T03:59:18.575Z,99970.88
2022-11-21T04:00:21.751Z,99974.28
2022-11-21T04:01:24.825Z,99972.50
2022-11-21T04:02:28.152Z,99977.88
2022-11-21T04:03:30.355Z,99973.34
2022-11-21T04:04:33.580Z,99978.56
2022-11-21T04:05:35.782Z,99979.53
2022-11-21T04:06:38.961Z,99978.56
2022-11-21T04:07:41.263Z,99977.75
2022-11-21T04:08:44.767Z,99969.34
2022-11-21T04:09:46.971Z,99979.53
2022-11-21T04:10:50.876Z,99974.28
2022-11-21T04:11:53.064Z,99982.97
2022-11-21T04:12:56.258Z,99979.38
2022-11-21T04:13:59.775Z,99986.44
2022-11-21T04:15:03.076Z,99983.81
2022-11-21T04:16:05.910Z,99982.97
2022-11-21T04:17:09.100Z,99981.19
2022-11-21T04:18:12.071Z,99983.81
2022-11-21T04:19:15.302Z,99980.50
2022-11-21T04:20:17.599Z,99977.88
2022-11-21T04:21:20.881Z,100003.91
2022-11-21T04:22:23.054Z,99976.91
2022-11-21T04:23:26.345Z,99975.56
2022-11-21T04:24:28.763Z,99983.13
2022-11-21T04:25:32.280Z,99976.22
2022-11-21T04:26:34.479Z,99970.97
2022-11-21T04:27:37.718Z,99974.56
2022-11-21T04:28:40.054Z,99983.41
2022-11-21T04:29:44.644Z,99983.41
2022-11-21T04:30:46.852Z,99982.56
2022-11-21T04:31:50.051Z,99977.34
2022-11-21T04:32:52.542Z,99983.56
2022-11-21T04:33:55.736Z,99986.28
2022-11-21T04:34:57.903Z,99984.50
2022-11-21T04:36:01.478Z,99988.91
2022-11-21T04:37:06.384Z,99989.03
2022-11-21T04:38:13.912Z,99989.19
2022-11-21T04:39:16.158Z,99987.41
2022-11-21T04:40:19.657Z,99990.16
2022-11-21T04:41:21.804Z,99989.34
2022-11-21T04:42:25.069Z,99992.09
2022-11-21T04:43:27.307Z,99986.03
2022-11-21T04:44:30.698Z,99990.47
2022-11-21T04:45:34.324Z,99993.22
2022-11-21T04:46:37.560Z,99995.00
2022-11-21T04:47:40.895Z,99989.75
2022-11-21T04:48:44.074Z,99994.31
2022-11-21T04:49:46.309Z,99994.31
2022-11-21T04:50:49.602Z,99990.84
2022-11-21T04:51:51.825Z,99995.28
2022-11-21T04:52:57.035Z,99992.66
2022-11-21T04:53:59.157Z,99987.59
2022-11-21T04:55:02.522Z,99979.44
2022-11-21T04:56:06.493Z,99989.38
2022-11-21T04:57:08.781Z,99973.94
2022-11-21T04:58:12.022Z,99980.69
2022-11-21T04:59:14.140Z,99976.41
2022-11-21T05:00:24.023Z,99979.19
2022-11-21T05:01:29.194Z,99984.28
2022-11-21T05:02:32.974Z,99981.81
2022-11-21T05:03:36.561Z,99987.97
2022-11-21T05:04:39.388Z,99987.19
2022-11-21T05:05:42.829Z,99988.97
2022-11-21T05:06:44.969Z,99986.34
2022-11-21T05:07:48.177Z,99980.41
2022-11-21T05:08:53.500Z,99984.00
2022-11-21T05:09:57.423Z,99979.72
2022-11-21T05:11:17.913Z,99987.72
2022-11-21T05:12:39.163Z,99987.72
2022-11-21T05:13:41.390Z,99982.63
2022-11-21T05:14:44.529Z,99981.66
2022-11-21T05:15:47.612Z,99976.56
2022-11-21T05:16:52.208Z,99978.38
2022-11-21T05:17:54.430Z,99970.63
2022-11-21T05:18:57.570Z,99986.34
2022-11-21T05:19:59.704Z,99980.44
2022-11-21T05:21:03.579Z,99971.75
2022-11-21T05:22:05.900Z,99978.78
2022-11-21T05:23:09.093Z,99987.75
2022-11-21T05:24:11.268Z,99987.75
2022-11-21T05:25:14.426Z,99985.25
2022-11-21T05:26:16.576Z,99988.81
2022-11-21T05:27:19.751Z,99986.22
2022-11-21T05:28:21.951Z,99995.88
2022-11-21T05:29:28.047Z,99997.09
2022-11-21T05:30:30.444Z,99994.34
2022-11-21T05:31:33.634Z,99994.34
2022-11-21T05:32:37.180Z,99988.41
2022-11-21T05:33:40.332Z,99985.81
2022-11-21T05:34:42.499Z,99996.13
2022-11-21T05:35:45.735Z,99985.00
2022-11-21T05:36:47.900Z,99993.50
2022-11-21T05:37:57.244Z,99988.28
2022-11-21T05:39:00.510Z,99983.03
2022-11-21T05:40:02.656Z,99977.00
2022-11-21T05:41:05.806Z,99976.16
2022-11-21T05:42:07.922Z,99980.56
2022-11-21T05:43:41.447Z,99980.56
2022-11-21T05:44:44.674Z,99983.19
2022-11-21T05:45:49.335Z,99990.22
2022-11-21T05:46:53.069Z,99986.78
2022-11-21T05:47:56.805Z,99995.47
2022-11-21T05:49:00.010Z,99995.47
2022-11-21T05:50:02.237Z,99996.25
2022-11-21T05:51:05.786Z,99996.25
2022-11-21T05:52:07.896Z,99993.50
2022-11-21T05:53:11.057Z,99978.81
2022-11-21T05:54:15.226Z,99994.19
2022-11-21T05:55:17.364Z,99990.63
2022-11-21T05:56:21.019Z,100008.94
2022-11-21T05:57:23.143Z,99990.50
2022-11-21T05:58:26.304Z,99988.69
2022-11-21T05:59:28.491Z,99984.13
2022-11-21T06:00:31.729Z,99990.22
2022-11-21T06:01:52.394Z,99989.22
2022-11-21T06:03:14.457Z,99986.47
2022-11-21T06:04:16.664Z,99991.56
2022-11-21T06:05:19.860Z,99985.38
2022-11-21T06:06:25.002Z,99991.44
2022-11-21T06:07:27.338Z,99984.25
2022-11-21T06:08:32.083Z,99985.25
2022-11-21T06:09:34.278Z,99994.72
2022-11-21T06:10:37.476Z,99990.19
2022-11-21T06:11:39.733Z,99988.41
2022-11-21T06:12:42.873Z,99988.25
2022-11-21T06:13:46.509Z,99990.88
2022-11-21T06:14:48.662Z,99990.75
2022-11-21T06:15:53.634Z,99986.34
2022-11-21T06:16:56.862Z,99988.81
2022-11-21T06:18:01.731Z,99986.19
2022-11-21T06:19:04.976Z,99991.97
2022-11-21T06:20:08.785Z,99982.47
2022-11-21T06:21:16.035Z,99979.72
2022-11-21T06:22:18.270Z,99979.72
2022-11-21T06:23:21.971Z,99980.53
2022-11-21T06:24:24.330Z,99973.66
2022-11-21T06:25:27.609Z,99974.34
2022-11-21T06:26:30.815Z,99972.53
2022-11-21T06:27:33.025Z,99966.50
2022-11-21T06:28:38.719Z,99969.13
2022-11-21T06:29:41.024Z,99958.66
2022-11-21T06:30:45.031Z,99967.44
2022-11-21T06:31:47.221Z,99970.91
2022-11-21T06:32:50.384Z,99966.66
2022-11-21T06:33:55.596Z,99975.16
2022-11-21T06:34:58.818Z,99969.13
2022-11-21T06:36:04.169Z,99989.22
2022-11-21T06:37:06.614Z,99971.72
2022-11-21T06:38:09.824Z,99975.28
2022-11-21T06:39:11.987Z,99979.59
2022-11-21T06:40:15.299Z,99982.19
2022-11-21T06:41:20.587Z,99983.84
2022-11-21T06:42:23.766Z,99989.91
2022-11-21T06:43:25.987Z,99984.69
2022-11-21T06:44:29.501Z,99983.69
2022-11-21T06:45:33.053Z,99986.16
2022-11-21T06:46:35.174Z,99979.16
2022-11-21T06:47:38.349Z,99976.69
2022-11-21T06:48:41.423Z,99973.91
2022-11-21T06:49:45.936Z,99986.03
2022-11-21T06:50:49.135Z,99980.00
2022-11-21T06:51:51.222Z,99985.22
2022-11-21T06:52:54.367Z,99987.69
2022-11-21T06:53:58.343Z,99981.63
2022-11-21T06:55:01.554Z,99983.25
2022-11-21T06:56:04.767Z,99989.47
2022-11-21T06:57:07.947Z,99978.88
2022-11-21T06:58:10.579Z,99982.31
2022-11-21T06:59:13.905Z,99977.09
2022-11-21T07:00:17.356Z,99974.47
2022-11-21T07:01:20.952Z,99968.13
2022-11-21T07:02:23.169Z,99975.31
2022-11-21T07:03:26.365Z,99978.72
2022-11-21T07:04:28.693Z,99983.97
2022-11-21T07:05:34.421Z,99976.25
2022-11-21T07:06:36.529Z,99980.53
2022-11-21T07:07:39.742Z,99981.34
2022-11-21T07:08:41.987Z,99975.16
2022-11-21T07:09:47.527Z,99983.81
2022-11-21T07:11:22.617Z,99979.41
2022-11-21T07:12:30.572Z,99987.13
2022-11-21T07:13:34.137Z,99981.88
2022-11-21T07:14:36.284Z,99984.34
2022-11-21T07:15:39.453Z,99976.66
2022-11-21T07:16:41.629Z,99968.78
2022-11-21T07:17:44.807Z,99977.47
2022-11-21T07:18:46.941Z,99987.13
2022-11-21T07:19:50.096Z,99974.88
2022-11-21T07:21:00.574Z,99976.66
2022-11-21T07:22:02.728Z,99974.72
2022-11-21T07:23:06.167Z,99978.19
2022-11-21T07:24:09.891Z,99978.19
2022-11-21T07:25:12.161Z,99979.13
2022-11-21T07:26:15.720Z,99983.25
2022-11-21T07:27:17.859Z,99978.84
2022-11-21T07:28:21.107Z,99990.97
2022-11-21T07:29:23.329Z,99980.50
2022-11-21T07:30:26.511Z,99982.13
2022-11-21T07:31:28.699Z,99979.53
2022-11-21T07:32:31.885Z,99983.81
2022-11-21T07:33:34.351Z,99982.84
2022-11-21T07:34:37.577Z,99988.91
2022-11-21T07:35:39.896Z,99993.16
2022-11-21T07:36:44.448Z,99987.78
2022-11-21T07:37:46.568Z,99978.28
2022-11-21T07:38:49.751Z,99984.34
2022-11-21T07:39:52.965Z,99981.84
2022-11-21T07:40:57.883Z,99989.84
2022-11-21T07:42:00.053Z,99981.84
2022-11-21T07:43:08.061Z,99981.19
2022-11-21T07:44:12.629Z,99982.13
2022-11-21T07:45:17.026Z,99989.31
2022-11-21T07:46:19.593Z,99983.13
2022-11-21T07:47:22.762Z,99983.13
2022-11-21T07:48:25.136Z,99985.75
2022-11-21T07:49:28.776Z,99985.75
2022-11-21T07:50:31.300Z,99983.81
2022-11-21T07:51:34.650Z,99986.44
2022-11-21T07:52:39.785Z,99981.84
2022-11-21T07:53:42.943Z,99987.91
2022-11-21T07:54:45.058Z,99980.91
2022-11-21T07:55:48.322Z,99984.34
2022-11-21T07:56:50.486Z,99974.69
2022-11-21T07:57:59.812Z,99978.00
2022-11-21T07:59:03.032Z,99981.44
2022-11-21T08:00:07.073Z,99978.69
2022-11-21T08:01:09.755Z,99982.13
2022-11-21T08:02:19.998Z,99969.84
2022-11-21T08:03:23.055Z,99974.28
2022-11-21T08:04:26.381Z,99974.28
2022-11-21T08:05:31.529Z,99983.91
2022-11-21T08:06:34.753Z,99978.53
2022-11-21T08:07:39.484Z,99973.31
2022-11-21T08:08:41.674Z,99979.38
2022-11-21T08:09:44.967Z,99971.66
2022-11-21T08:10:47.327Z,99977.69
2022-11-21T08:11:50.481Z,99975.09
2022-11-21T08:12:52.609Z,99978.53
2022-11-21T08:13:56.170Z,99976.75
2022-11-21T08:14:58.429Z,99979.38
2022-11-21T08:16:03.938Z,99979.38
2022-11-21T08:17:07.747Z,99980.47
2022-11-21T08:18:10.662Z,99974.13
2022-11-21T08:19:13.838Z,99981.00
2022-11-21T08:20:16.289Z,99978.41
2022-11-21T08:21:20.119Z,99976.59
2022-11-21T08:22:23.409Z,99981.84
2022-11-21T08:23:26.886Z,99979.78
2022-11-21T08:24:30.358Z,99976.84
2022-11-21T08:25:33.863Z,99981.94
2022-11-21T08:26:36.971Z,99973.81
2022-11-21T08:27:41.120Z,99971.03
2022-11-21T08:28:44.329Z,99975.88
2022-11-21T08:29:46.686Z,99972.13
2022-11-21T08:30:49.823Z,99974.44
2022-11-21T08:31:53.011Z,99975.97
2022-11-21T08:32:55.202Z,99979.28
2022-11-21T08:33:58.684Z,99980.75
2022-11-21T08:35:00.898Z,99966.69
2022-11-21T08:36:05.355Z,99975.22
2022-11-21T08:37:08.141Z,99972.31
2022-11-21T08:38:11.305Z,99970.38
2022-11-21T08:39:14.830Z,99975.31
2022-11-21T08:40:18.119Z,99967.34
2022-11-21T08:41:38.879Z,99973.09
2022-11-21T08:42:42.041Z,99970.19
2022-11-21T08:43:44.393Z,99971.69
2022-11-21T08:44:47.567Z,99967.97
2022-11-21T08:45:49.672Z,99956.19
2022-11-21T08:46:52.844Z,99960.34
2022-11-21T08:47:56.450Z,99961.81
2022-11-21T08:48:59.643Z,99972.16
2022-11-21T08:50:08.597Z,99964.69
2022-11-21T08:51:14.553Z,99964.41
2022-11-21T08:52:18.156Z,99967.69
2022-11-21T08:53:20.385Z,99971.81
2022-11-21T08:54:26.109Z,99964.63
2022-11-21T08:55:28.540Z,99966.28
2022-11-21T08:56:31.910Z,99963.34
2022-11-21T08:57:39.098Z,99965.69
2022-11-21T08:58:41.334Z,99963.72
2022-11-21T08:59:44.542Z,99962.78
2022-11-21T09:00:47.707Z,99960.69
2022-11-21T09:01:52.956Z,99964.78
2022-11-21T09:02:56.177Z,99963.69
2022-11-21T09:03:58.354Z,99972.19
2022-11-21T09:05:01.498Z,99957.97
2022-11-21T09:06:03.674Z,99964.56
2022-11-21T09:07:06.941Z,99958.34
2022-11-21T09:08:09.203Z,99960.84
2022-11-21T09:09:12.466Z,99958.88
2022-11-21T09:10:16.427Z,99960.53
2022-11-21T09:11:19.923Z,99961.22
2022-11-21T09:12:23.258Z,99955.97
2022-11-21T09:13:25.427Z,99967.13
2022-11-21T09:14:45.839Z,99958.13
2022-11-21T09:16:06.654Z,99966.53
2022-11-21T09:17:31.132Z,99955.72
2022-11-21T09:18:34.312Z,99962.16
2022-11-21T09:19:36.428Z,99959.91
2022-11-21T09:20:41.408Z,99982.28
2022-11-21T09:21:43.630Z,99955.56
2022-11-21T09:22:47.069Z,99955.25
2022-11-21T09:23:50.386Z,99964.31
2022-11-21T09:24:52.586Z,99963.69
2022-11-21T09:25:57.329Z,99970.97
2022-11-21T09:26:59.831Z,99964.28
2022-11-21T09:28:03.408Z,99974.97
2022-11-21T09:29:06.618Z,99968.31
2022-11-21T09:30:10.455Z,99980.00
2022-11-21T09:31:12.714Z,99972.16
2022-11-21T09:32:15.900Z,99970.72
2022-11-21T09:33:19.089Z,99964.00
2022-11-21T09:34:22.226Z,99974.75
2022-11-21T09:35:24.389Z,99969.84
2022-11-21T09:36:27.677Z,99973.63
2022-11-21T09:37:29.849Z,99976.63
2022-11-21T09:38:33.120Z,99980.59
2022-11-21T09:39:35.282Z,99983.56
2022-11-21T09:40:42.570Z,99984.91
2022-11-21T09:41:55.885Z,99978.50
2022-11-21T09:43:14.869Z,99980.00
2022-11-21T09:44:44.368Z,99983.94
2022-11-21T09:45:50.365Z,99988.88
2022-11-21T09:47:05.549Z,99982.50
2022-11-21T09:48:13.720Z,99984.81
2022-11-21T09:49:18.363Z,99980.38
2022-11-21T09:50:29.623Z,99978.56
2022-11-21T09:51:32.996Z,99983.69
2022-11-21T09:52:43.032Z,99985.16
2022-11-21T09:53:55.438Z,99986.00
2022-11-21T09:55:04.208Z,99988.63
2022-11-21T09:56:12.254Z,99996.66
2022-11-21T09:57:20.359Z,99986.78
2022-11-21T09:58:33.871Z,99989.41
2022-11-21T09:59:39.000Z,99992.22
2022-11-21T10:00:42.371Z,99986.94
2022-11-21T10:01:44.613Z,99989.06
2022-11-21T10:02:47.883Z,99991.88
2022-11-21T10:03:52.329Z,99985.13
2022-11-21T10:05:00.680Z,99987.09
2022-11-21T10:06:06.179Z,99988.25
2022-11-21T10:07:14.541Z,99987.56
2022-11-21T10:08:27.482Z,99985.09
2022-11-21T10:09:46.565Z,99977.22
2022-11-21T10:10:56.155Z,99987.91
2022-11-21T10:12:23.140Z,99987.91
2022-11-21T10:13:45.812Z,99984.59
2022-11-21T10:14:56.337Z,99978.66
2022-11-21T10:16:02.824Z,99982.28
2022-11-21T10:17:19.515Z,99958.41
2022-11-21T10:18:46.461Z,99964.84
2022-11-21T10:20:04.428Z,99972.56
2022-11-21T10:21:21.403Z,99967.47
2022-11-21T10:22:49.376Z,99974.41
2022-11-21T10:24:15.473Z,99973.56
2022-11-21T10:25:27.412Z,99968.47
2022-11-21T10:26:37.533Z,99964.19
2022-11-21T10:27:47.551Z,99966.81
2022-11-21T10:28:58.334Z,99967.47
2022-11-21T10:30:03.451Z,99969.13
2022-11-21T10:31:11.070Z,99964.53
2022-11-21T10:32:23.180Z,99962.56
2022-11-21T10:33:32.859Z,99961.59
2022-11-21T10:34:38.011Z,99963.91
2022-11-21T10:35:47.290Z,99958.50
2022-11-21T10:36:54.763Z,99965.22
2022-11-21T10:38:01.060Z,99959.97
2022-11-21T10:39:12.703Z,99950.94
2022-11-21T10:40:24.408Z,99948.16
2022-11-21T10:41:40.680Z,99952.25
2022-11-21T10:42:52.779Z,99942.56
2022-11-21T10:44:22.925Z,99951.13
2022-11-21T10:45:25.420Z,99952.75
2022-11-21T10:46:28.600Z,99958.84
2022-11-21T10:47:37.291Z,99946.53
2022-11-21T10:48:40.436Z,99955.22
2022-11-21T10:49:44.346Z,99958.84
2022-11-21T10:51:19.011Z,99958.84
2022-11-21T10:52:27.399Z,99972.84
2022-11-21T10:53:49.436Z,99941.94
2022-11-21T10:55:09.073Z,99946.22
2022-11-21T10:56:15.185Z,99944.25
2022-11-21T10:57:19.588Z,99948.50
2022-11-21T10:58:46.516Z,99946.56
2022-11-21T11:00:02.384Z,99941.97
2022-11-21T11:01:04.675Z,99937.38
2022-11-21T11:02:24.550Z,99938.84
2022-11-21T11:03:29.882Z,99940.34
2022-11-21T11:04:43.893Z,99941.13
2022-11-21T11:05:58.160Z,99936.72
2022-11-21T11:07:24.638Z,99943.31
2022-11-21T11:08:28.782Z,99937.56
2022-11-21T11:09:32.750Z,99933.75
2022-11-21T11:10:37.789Z,99933.47
2022-11-21T11:11:40.002Z,99940.03
2022-11-21T11:13:01.963Z,99941.38
2022-11-21T11:14:14.665Z,99935.09
2022-11-21T11:15:20.680Z,99944.50
2022-11-21T11:16:25.845Z,99943.66
2022-11-21T11:17:30.280Z,99936.25
2022-11-21T11:18:35.604Z,99941.06
2022-11-21T11:19:40.381Z,99934.63
2022-11-21T11:20:45.856Z,99948.28
2022-11-21T11:21:49.796Z,99927.72
2022-11-21T11:22:51.921Z,99930.69
2022-11-21T11:23:57.058Z,99930.34
2022-11-21T11:25:00.869Z,99931.66
2022-11-21T11:26:23.507Z,99925.91
2022-11-21T11:27:29.910Z,99925.38
2022-11-21T11:28:37.319Z,99923.91
2022-11-21T11:29:53.168Z,99919.97
2022-11-21T11:30:59.109Z,99924.56
2022-11-21T11:32:04.843Z,99912.69
2022-11-21T11:33:29.447Z,99918.28
2022-11-21T11:34:40.839Z,99928.13
2022-11-21T11:35:44.036Z,99919.88
2022-11-21T11:37:07.450Z,99923.19
2022-11-21T11:38:12.886Z,99925.47
2022-11-21T11:39:23.002Z,99918.22
2022-11-21T11:40:32.596Z,99924.16
2022-11-21T11:42:16.971Z,99923.81
2022-11-21T11:44:03.701Z,99920.66
2022-11-21T11:45:34.544Z,99919.34
2022-11-21T11:47:05.705Z,99916.34
2022-11-21T11:48:09.681Z,99923.13
2022-11-21T11:49:21.170Z,99913.03
2022-11-21T11:50:29.283Z,99930.34
2022-11-21T11:51:38.471Z,99903.97
2022-11-21T11:52:51.689Z,99914.66
2022-11-21T11:54:01.333Z,99911.50
2022-11-21T11:55:08.096Z,99915.09
2022-11-21T11:56:17.699Z,99911.78
2022-11-21T11:57:21.750Z,99909.44
2022-11-21T11:58:33.045Z,99910.91
2022-11-21T11:59:42.140Z,99902.28
2022-11-21T12:00:50.036Z,99900.47
2022-11-21T12:01:59.134Z,99899.97
2022-11-21T12:03:08.750Z,99897.63
2022-11-21T12:04:15.542Z,99903.22
2022-11-21T12:05:23.727Z,99896.38
2022-11-21T12:07:04.182Z,99896.69
2022-11-21T12:09:47.497Z,99881.25
2022-11-21T12:11:25.026Z,99875.78
2022-11-21T12:12:36.857Z,99879.25
2022-11-21T12:13:41.073Z,99872.16
2022-11-21T12:15:22.637Z,99868.69
2022-11-21T12:16:28.418Z,99868.88
2022-11-21T12:17:40.770Z,99868.06
2022-11-21T12:18:52.615Z,99868.88
2022-11-21T12:19:58.224Z,99868.22
2022-11-21T12:21:09.076Z,99859.66
2022-11-21T12:22:12.841Z,99865.28
2022-11-21T12:23:17.023Z,99862.00
2022-11-21T12:24:21.070Z,99852.63
2022-11-21T12:25:30.311Z,99852.69
2022-11-21T12:26:52.055Z,99849.53
2022-11-21T12:27:56.224Z,99850.53
2022-11-21T12:29:13.439Z,99849.88
2022-11-21T12:30:50.035Z,99841.97
2022-11-21T12:32:31.635Z,99847.25
2022-11-21T12:33:41.237Z,99838.13
2022-11-21T12:35:13.677Z,99837.16
2022-11-21T12:36:28.434Z,99837.97
2022-11-21T12:37:39.995Z,99832.53
2022-11-21T12:39:11.269Z,99835.16
2022-11-21T12:40:33.880Z,99837.63
2022-11-21T12:42:03.788Z,99835.00
2022-11-21T12:43:21.612Z,99827.06
2022-11-21T12:44:47.783Z,99834.81
2022-11-21T12:46:01.115Z,99828.69
2022-11-21T12:47:20.395Z,99832.00
2022-11-21T12:48:56.105Z,99833.63
2022-11-21T12:50:31.631Z,99834.44
2022-11-21T12:52:10.350Z,99824.34
2022-11-21T12:53:42.206Z,99826.63
2022-11-21T12:55:07.335Z,99826.47